createdAt,value
2017-10-07T00:00:38.284Z,3.40
2017-10-07T00:02:01.531Z,3.30
2017-10-07T00:03:02.373Z,3.60
2017-10-07T00:04:25.455Z,4.10
2017-10-07T00:05:26.497Z,4.20
2017-10-07T00:07:33.484Z,4.00
2017-10-07T00:08:34.156Z,4.00
2017-10-07T00:10:18.616Z,3.30
2017-10-07T00:12:04.588Z,3.40
2017-10-07T00:13:05.324Z,3.40
2017-10-07T00:14:05.057Z,2.80
2017-10-07T00:15:27.592Z,3.00
2017-10-07T00:17:36.450Z,3.40
2017-10-07T00:19:44.660Z,3.80
2017-10-07T00:20:45.352Z,3.70
2017-10-07T00:22:30.667Z,3.10
2017-10-07T00:23:31.368Z,3.10
2017-10-07T00:24:53.531Z,3.80
2017-10-07T00:25:54.271Z,3.10
2017-10-07T00:28:01.150Z,3.50
2017-10-07T00:29:25.317Z,3.40
2017-10-07T00:31:12.340Z,3.20
2017-10-07T00:32:12.004Z,3.20
2017-10-07T00:33:35.272Z,3.50
2017-10-07T00:34:35.708Z,3.00
2017-10-07T00:35:35.311Z,3.20
2017-10-07T00:37:21.656Z,2.80
2017-10-07T00:38:22.000Z,3.00
2017-10-07T00:39:21.410Z,3.10
2017-10-07T00:41:51.781Z,3.20
2017-10-07T00:42:52.514Z,3.10
2017-10-07T00:43:52.944Z,3.00
2017-10-07T00:45:37.521Z,3.30
2017-10-07T00:48:10.340Z,2.70
2017-10-07T00:49:10.982Z,2.90
2017-10-07T00:50:10.225Z,3.40
2017-10-07T00:51:10.315Z,3.00
2017-10-07T00:52:34.640Z,3.60
2017-10-07T00:53:35.169Z,3.00
2017-10-07T00:54:34.642Z,3.10
2017-10-07T00:55:57.241Z,3.20
2017-10-07T00:56:57.815Z,3.10
2017-10-07T00:58:22.436Z,3.90
2017-10-07T00:59:21.406Z,3.70
2017-10-07T01:00:44.329Z,3.70
2017-10-07T01:01:44.778Z,4.00
2017-10-07T01:03:08.731Z,4.00
2017-10-07T01:04:53.583Z,4.10
2017-10-07T01:05:53.786Z,4.20
2017-10-07T01:08:02.060Z,3.80
2017-10-07T01:09:05.177Z,3.80
2017-10-07T01:10:03.123Z,3.50
2017-10-07T01:11:48.475Z,4.00
2017-10-07T01:12:49.368Z,4.50
2017-10-07T01:13:48.840Z,4.20
2017-10-07T01:14:48.906Z,3.90
2017-10-07T01:15:48.292Z,4.20
2017-10-07T01:16:49.033Z,4.40
2017-10-07T01:17:48.710Z,4.00
2017-10-07T01:18:49.366Z,4.50
2017-10-07T01:20:11.288Z,4.50
2017-10-07T01:21:12.128Z,4.40
2017-10-07T01:22:34.572Z,4.50
2017-10-07T01:23:35.264Z,4.80
2017-10-07T01:24:35.710Z,4.20
2017-10-07T01:25:57.775Z,3.80
2017-10-07T01:27:20.672Z,4.20
2017-10-07T01:28:43.694Z,4.00
2017-10-07T01:30:07.298Z,3.90
2017-10-07T01:31:09.283Z,4.30
2017-10-07T01:32:07.728Z,4.60
2017-10-07T01:33:07.402Z,5.20
2017-10-07T01:34:55.116Z,4.10
2017-10-07T01:37:03.456Z,3.70
2017-10-07T01:38:04.091Z,3.90
2017-10-07T01:40:56.236Z,3.90
2017-10-07T01:42:42.836Z,4.30
2017-10-07T01:43:43.855Z,3.70
2017-10-07T01:45:28.374Z,4.00
2017-10-07T01:46:52.385Z,3.80
2017-10-07T01:47:54.975Z,3.50
2017-10-07T01:49:15.050Z,3.40
2017-10-07T01:50:15.242Z,3.30
2017-10-07T01:51:15.720Z,3.20
2017-10-07T01:52:37.922Z,2.90
2017-10-07T01:53:38.676Z,3.80
2017-10-07T01:54:38.119Z,3.10
2017-10-07T01:57:08.351Z,3.40
2017-10-07T01:58:09.021Z,3.80
2017-10-07T01:59:10.024Z,3.60
2017-10-07T02:00:31.881Z,3.40
2017-10-07T02:01:32.604Z,3.90
2017-10-07T02:02:54.462Z,3.90
2017-10-07T02:03:55.950Z,3.70
2017-10-07T02:04:55.679Z,3.80
2017-10-07T02:05:54.895Z,4.20
2017-10-07T02:06:55.347Z,3.50
2017-10-07T02:07:55.214Z,3.90
2017-10-07T02:09:17.608Z,3.70
2017-10-07T02:11:04.348Z,3.50
2017-10-07T02:12:27.143Z,3.90
2017-10-07T02:13:27.864Z,3.80
2017-10-07T02:14:26.876Z,3.90
2017-10-07T02:15:29.594Z,3.60
2017-10-07T02:16:27.396Z,3.00
2017-10-07T02:17:49.990Z,3.30
2017-10-07T02:18:50.230Z,3.40
2017-10-07T02:19:50.935Z,3.80
2017-10-07T02:20:50.366Z,2.90
2017-10-07T02:21:50.609Z,3.30
2017-10-07T02:22:49.687Z,3.40
2017-10-07T02:23:50.109Z,3.70
2017-10-07T02:24:50.407Z,3.60
2017-10-07T02:25:51.365Z,3.40
2017-10-07T02:27:57.936Z,3.20
2017-10-07T02:28:58.096Z,3.30
2017-10-07T02:30:43.496Z,3.20
2017-10-07T02:31:43.670Z,2.90
2017-10-07T02:33:06.640Z,3.90
2017-10-07T02:34:07.431Z,4.00
2017-10-07T02:35:06.424Z,2.90
2017-10-07T02:36:29.212Z,3.70
2017-10-07T02:37:30.371Z,3.90
2017-10-07T02:38:52.181Z,3.60
2017-10-07T02:39:53.762Z,3.40
2017-10-07T02:40:53.532Z,4.00
2017-10-07T02:41:52.650Z,3.50
2017-10-07T02:42:53.619Z,3.70
2017-10-07T02:43:52.824Z,4.00
2017-10-07T02:44:52.946Z,3.70
2017-10-07T02:46:15.403Z,4.00
2017-10-07T02:47:15.873Z,4.10
2017-10-07T02:48:39.333Z,3.70
2017-10-07T02:49:39.485Z,3.70
2017-10-07T02:50:39.847Z,3.80
2017-10-07T02:52:24.759Z,4.00
2017-10-07T02:53:49.635Z,4.10
2017-10-07T02:55:12.607Z,4.60
2017-10-07T02:56:57.720Z,4.10
2017-10-07T02:57:58.012Z,4.40
2017-10-07T02:58:58.508Z,4.60
2017-10-07T02:59:57.713Z,5.00
2017-10-07T03:00:58.178Z,5.20
2017-10-07T03:02:20.591Z,5.10
2017-10-07T03:03:21.194Z,5.00
2017-10-07T03:04:44.174Z,5.10
2017-10-07T03:05:44.734Z,5.10
2017-10-07T03:06:44.178Z,5.80
2017-10-07T03:08:29.725Z,5.60
2017-10-07T03:09:31.639Z,5.60
2017-10-07T03:11:16.140Z,5.50
2017-10-07T03:12:39.924Z,5.80
2017-10-07T03:13:40.293Z,5.80
2017-10-07T03:14:41.685Z,6.20
2017-10-07T03:15:39.964Z,6.30
2017-10-07T03:16:40.003Z,6.70
2017-10-07T03:17:40.510Z,7.20
2017-10-07T03:19:03.250Z,6.30
2017-10-07T03:20:26.393Z,5.70
2017-10-07T03:21:27.060Z,6.70
2017-10-07T03:22:26.183Z,7.10
2017-10-07T03:23:26.898Z,6.00
2017-10-07T03:24:26.205Z,6.70
2017-10-07T03:25:49.671Z,6.70
2017-10-07T03:26:50.328Z,6.80
2017-10-07T03:27:50.057Z,6.60
2017-10-07T03:28:50.521Z,7.30
2017-10-07T03:30:12.398Z,6.70
2017-10-07T03:31:13.188Z,6.50
2017-10-07T03:32:13.020Z,6.30
2017-10-07T03:33:12.326Z,6.30
2017-10-07T03:34:12.749Z,6.50
2017-10-07T03:35:12.896Z,6.60
2017-10-07T03:36:13.982Z,6.00
2017-10-07T03:37:12.221Z,5.90
2017-10-07T03:38:37.070Z,6.20
2017-10-07T03:40:22.872Z,6.10
2017-10-07T03:41:25.282Z,6.30
2017-10-07T03:42:22.938Z,6.10
2017-10-07T03:44:07.794Z,5.30
2017-10-07T03:45:08.466Z,6.20
2017-10-07T03:46:08.540Z,5.90
2017-10-07T03:47:31.101Z,5.80
2017-10-07T03:48:54.270Z,5.80
2017-10-07T03:49:54.735Z,6.30
2017-10-07T03:50:55.235Z,6.20
2017-10-07T03:52:20.069Z,5.90
2017-10-07T03:53:18.619Z,6.20
2017-10-07T03:54:41.245Z,6.60
2017-10-07T03:55:41.316Z,7.10
2017-10-07T03:57:04.654Z,5.80
2017-10-07T03:58:50.220Z,5.70
2017-10-07T03:59:51.442Z,6.40
2017-10-07T04:00:51.018Z,6.60
2017-10-07T04:01:51.506Z,5.70
2017-10-07T04:02:51.125Z,6.60
2017-10-07T04:03:50.735Z,5.90
2017-10-07T04:05:13.546Z,4.90
2017-10-07T04:06:14.827Z,6.00
2017-10-07T04:07:37.100Z,6.40
2017-10-07T04:08:37.142Z,5.50
2017-10-07T04:09:37.716Z,6.30
2017-10-07T04:11:23.333Z,5.60
2017-10-07T04:12:24.121Z,5.10
2017-10-07T04:13:45.860Z,5.80
2017-10-07T04:15:09.496Z,5.50
2017-10-07T04:16:10.825Z,4.40
2017-10-07T04:17:10.378Z,4.90
2017-10-07T04:18:09.892Z,4.90
2017-10-07T04:19:56.339Z,5.40
2017-10-07T04:21:17.219Z,5.10
2017-10-07T04:22:17.703Z,5.10
2017-10-07T04:23:40.034Z,5.20
2017-10-07T04:24:40.655Z,5.10
2017-10-07T04:25:40.518Z,4.90
2017-10-07T04:27:02.609Z,5.20
2017-10-07T04:28:25.176Z,4.70
2017-10-07T04:29:48.498Z,5.40
2017-10-07T04:30:48.998Z,4.80
2017-10-07T04:32:55.521Z,5.10
2017-10-07T04:33:55.760Z,4.10
2017-10-07T04:35:18.734Z,4.60
2017-10-07T04:36:19.659Z,4.20
2017-10-07T04:37:19.426Z,4.50
2017-10-07T04:38:18.847Z,5.20
2017-10-07T04:39:19.847Z,4.60
2017-10-07T04:42:12.111Z,5.20
2017-10-07T04:43:12.518Z,5.30
2017-10-07T04:44:12.138Z,5.00
2017-10-07T04:45:12.997Z,4.50
2017-10-07T04:46:12.316Z,4.70
2017-10-07T04:47:13.326Z,5.60
2017-10-07T04:48:12.551Z,5.60
2017-10-07T04:49:13.276Z,5.40
2017-10-07T04:50:12.808Z,5.10
2017-10-07T04:52:20.090Z,4.80
2017-10-07T04:53:20.657Z,4.20
2017-10-07T04:54:42.365Z,4.90
2017-10-07T04:56:04.822Z,4.40
2017-10-07T04:57:05.080Z,4.60
2017-10-07T04:58:28.827Z,4.50
2017-10-07T04:59:29.296Z,4.90
2017-10-07T05:00:28.978Z,4.30
2017-10-07T05:01:29.476Z,4.40
2017-10-07T05:03:59.167Z,4.30
2017-10-07T05:05:22.092Z,4.60
2017-10-07T05:06:44.773Z,4.90
2017-10-07T05:08:53.650Z,4.50
2017-10-07T05:09:53.796Z,4.60
2017-10-07T05:11:17.054Z,4.50
2017-10-07T05:13:01.833Z,3.60
2017-10-07T05:14:02.701Z,4.20
2017-10-07T05:15:01.787Z,4.40
2017-10-07T05:17:09.418Z,3.90
2017-10-07T05:18:09.440Z,4.00
2017-10-07T05:19:10.199Z,4.40
2017-10-07T05:20:09.525Z,4.20
2017-10-07T05:21:10.450Z,4.00
2017-10-07T05:22:09.673Z,3.80
2017-10-07T05:23:09.962Z,4.40
2017-10-07T05:24:55.650Z,3.90
2017-10-07T05:27:47.358Z,4.50
2017-10-07T05:28:47.947Z,4.20
2017-10-07T05:30:11.020Z,4.20
2017-10-07T05:31:33.799Z,4.20
2017-10-07T05:32:34.052Z,4.20
2017-10-07T05:33:56.713Z,4.40
2017-10-07T05:35:43.450Z,3.70
2017-10-07T05:36:43.741Z,4.40
2017-10-07T05:37:44.469Z,4.70
2017-10-07T05:38:44.101Z,4.30
2017-10-07T05:39:43.945Z,4.90
2017-10-07T05:41:06.104Z,4.70
2017-10-07T05:42:29.510Z,4.50
2017-10-07T05:43:52.545Z,4.30
2017-10-07T05:45:15.217Z,4.70
2017-10-07T05:46:16.110Z,4.60
2017-10-07T05:47:38.527Z,4.20
2017-10-07T05:48:39.307Z,4.50
2017-10-07T05:49:38.449Z,5.60
2017-10-07T05:50:39.076Z,4.80
2017-10-07T05:52:01.100Z,4.90
2017-10-07T05:53:01.360Z,4.40
2017-10-07T05:54:01.933Z,5.10
2017-10-07T05:55:01.275Z,4.40
2017-10-07T05:56:24.656Z,5.10
2017-10-07T05:58:09.966Z,4.40
2017-10-07T05:59:10.587Z,4.90
2017-10-07T06:00:10.237Z,4.50
2017-10-07T06:01:33.283Z,5.00
2017-10-07T06:02:33.741Z,5.20
2017-10-07T06:03:56.344Z,4.60
2017-10-07T06:04:57.004Z,4.90
2017-10-07T06:05:56.791Z,4.60
2017-10-07T06:06:58.199Z,4.30
2017-10-07T06:08:19.573Z,4.30
2017-10-07T06:09:43.539Z,4.70
2017-10-07T06:11:29.182Z,4.40
2017-10-07T06:12:29.781Z,4.00
2017-10-07T06:13:30.511Z,4.40
2017-10-07T06:14:29.301Z,4.10
2017-10-07T06:15:52.157Z,4.10
2017-10-07T06:16:52.750Z,4.60
2017-10-07T06:17:53.314Z,4.00
2017-10-07T06:18:52.538Z,4.50
2017-10-07T06:20:15.739Z,5.00
2017-10-07T06:22:01.102Z,4.30
2017-10-07T06:23:01.853Z,4.50
2017-10-07T06:24:01.403Z,3.80
2017-10-07T06:25:24.596Z,4.30
2017-10-07T06:26:25.119Z,4.00
2017-10-07T06:27:24.988Z,3.80
2017-10-07T06:28:25.047Z,4.00
2017-10-07T06:29:47.602Z,4.00
2017-10-07T06:31:11.052Z,3.90
2017-10-07T06:32:11.296Z,3.20
2017-10-07T06:33:57.208Z,3.80
2017-10-07T06:34:56.844Z,3.50
2017-10-07T06:35:58.118Z,3.50
2017-10-07T06:37:19.763Z,3.90
2017-10-07T06:39:50.162Z,3.80
2017-10-07T06:40:50.851Z,3.80
2017-10-07T06:43:43.624Z,3.90
2017-10-07T06:44:43.882Z,3.90
2017-10-07T06:46:06.894Z,4.00
2017-10-07T06:47:29.924Z,3.60
2017-10-07T06:48:30.867Z,4.20
2017-10-07T06:49:30.790Z,3.50
2017-10-07T06:50:34.593Z,3.80
2017-10-07T06:51:54.641Z,3.30
2017-10-07T06:53:17.305Z,3.40
2017-10-07T06:54:41.076Z,3.70
2017-10-07T06:55:41.657Z,3.60
2017-10-07T06:57:49.062Z,3.10
2017-10-07T06:58:49.638Z,3.50
2017-10-07T06:59:49.307Z,3.80
2017-10-07T07:00:48.758Z,3.80
2017-10-07T07:02:12.867Z,3.30
2017-10-07T07:03:35.624Z,3.60
2017-10-07T07:04:58.743Z,3.60
2017-10-07T07:05:59.753Z,3.60
2017-10-07T07:06:59.408Z,3.20
2017-10-07T07:07:58.708Z,3.50
2017-10-07T07:09:21.903Z,3.80
2017-10-07T07:10:22.233Z,3.90
2017-10-07T07:11:21.603Z,3.00
2017-10-07T07:12:23.054Z,3.50
2017-10-07T07:14:07.384Z,7.40
2017-10-07T07:15:53.607Z,3.80
2017-10-07T07:17:16.347Z,4.20
2017-10-07T07:18:39.867Z,4.10
2017-10-07T07:19:40.144Z,4.10
2017-10-07T07:21:03.486Z,4.20
2017-10-07T07:22:04.104Z,4.20
2017-10-07T07:23:03.695Z,4.30
2017-10-07T07:24:03.292Z,4.30
2017-10-07T07:25:03.729Z,6.20
2017-10-07T07:27:11.424Z,4.60
2017-10-07T07:28:12.015Z,4.90
2017-10-07T07:29:56.990Z,4.80
2017-10-07T07:30:57.442Z,3.60
2017-10-07T07:31:58.114Z,4.20
2017-10-07T07:32:57.847Z,4.30
2017-10-07T07:34:21.383Z,4.00
2017-10-07T07:36:05.964Z,4.30
2017-10-07T07:37:50.582Z,4.50
2017-10-07T07:38:51.111Z,4.30
2017-10-07T07:39:50.968Z,4.90
2017-10-07T07:40:50.767Z,5.20
2017-10-07T07:41:51.479Z,4.30
2017-10-07T07:43:13.710Z,5.00
2017-10-07T07:44:14.625Z,4.60
2017-10-07T07:45:14.773Z,5.50
2017-10-07T07:46:14.346Z,4.60
2017-10-07T07:47:14.607Z,4.90
2017-10-07T07:48:14.098Z,5.20
2017-10-07T07:49:14.070Z,4.80
2017-10-07T07:50:38.311Z,5.00
2017-10-07T07:51:59.535Z,4.90
2017-10-07T07:53:00.405Z,5.40
2017-10-07T07:54:22.547Z,5.50
2017-10-07T07:55:23.844Z,5.80
2017-10-07T07:57:31.765Z,5.00
2017-10-07T07:58:31.324Z,4.70
2017-10-07T07:59:31.978Z,5.40
2017-10-07T08:00:31.890Z,5.50
2017-10-07T08:01:32.005Z,5.60
2017-10-07T08:05:32.927Z,5.30
2017-10-07T08:06:56.556Z,5.30
2017-10-07T08:07:57.133Z,5.50
2017-10-07T08:09:42.226Z,4.90
2017-10-07T08:11:04.166Z,4.90
2017-10-07T08:12:05.485Z,4.60
2017-10-07T08:13:04.865Z,4.50
2017-10-07T08:14:04.491Z,5.10
2017-10-07T08:15:28.073Z,4.20
2017-10-07T08:17:38.151Z,4.90
2017-10-07T08:18:38.793Z,4.50
2017-10-07T08:20:01.296Z,4.20
2017-10-07T08:21:02.077Z,4.10
2017-10-07T08:23:54.930Z,4.90
2017-10-07T08:25:18.173Z,5.30
2017-10-07T08:26:18.956Z,4.80
2017-10-07T08:27:18.703Z,5.20
2017-10-07T08:28:18.523Z,4.50
2017-10-07T08:29:18.758Z,4.40
2017-10-07T08:30:18.561Z,4.80
2017-10-07T08:31:41.785Z,4.40
2017-10-07T08:33:04.864Z,5.20
2017-10-07T08:34:50.566Z,4.90
2017-10-07T08:35:50.952Z,4.60
2017-10-07T08:36:50.664Z,4.60
2017-10-07T08:37:51.021Z,5.00
2017-10-07T08:38:50.604Z,4.60
2017-10-07T08:39:52.715Z,5.20
2017-10-07T08:41:13.484Z,4.50
2017-10-07T08:42:58.883Z,4.40
2017-10-07T08:44:25.201Z,4.70
2017-10-07T08:45:49.180Z,4.30
2017-10-07T08:46:49.939Z,4.30
2017-10-07T08:48:12.081Z,4.30
2017-10-07T08:49:12.114Z,4.80
2017-10-07T08:50:12.821Z,4.10
2017-10-07T08:51:35.984Z,4.40
2017-10-07T08:52:37.089Z,4.90
2017-10-07T08:55:29.412Z,4.30
2017-10-07T08:57:15.150Z,3.90
2017-10-07T08:58:15.964Z,5.00
2017-10-07T08:59:15.887Z,3.90
2017-10-07T09:00:14.893Z,5.10
2017-10-07T09:01:38.181Z,4.40
2017-10-07T09:02:38.649Z,4.00
2017-10-07T09:03:38.736Z,4.00
2017-10-07T09:04:39.075Z,4.20
2017-10-07T09:06:02.424Z,4.40
2017-10-07T09:07:26.069Z,3.60
2017-10-07T09:08:48.906Z,4.40
2017-10-07T09:10:12.788Z,4.80
2017-10-07T09:11:13.488Z,4.90
2017-10-07T09:12:13.907Z,5.40
2017-10-07T09:13:12.311Z,4.90
2017-10-07T09:14:57.957Z,4.40
2017-10-07T09:15:59.084Z,5.00
2017-10-07T09:18:51.963Z,5.10
2017-10-07T09:19:52.971Z,5.60
2017-10-07T09:22:01.363Z,5.50
2017-10-07T09:23:02.206Z,5.10
2017-10-07T09:24:24.574Z,5.70
2017-10-07T09:26:15.665Z,5.70
2017-10-07T09:28:00.552Z,5.40
2017-10-07T09:29:26.147Z,5.70
2017-10-07T09:30:49.438Z,5.70
2017-10-07T09:31:50.142Z,5.80
2017-10-07T09:33:12.088Z,5.30
2017-10-07T09:34:12.745Z,5.50
2017-10-07T09:35:12.669Z,5.30
2017-10-07T09:36:12.407Z,6.00
2017-10-07T09:37:12.324Z,7.00
2017-10-07T09:38:58.716Z,6.50
2017-10-07T09:40:00.970Z,5.90
2017-10-07T09:40:58.885Z,6.40
2017-10-07T09:41:59.638Z,5.90
2017-10-07T09:44:08.499Z,5.40
2017-10-07T09:47:50.078Z,6.20
2017-10-07T09:49:13.307Z,5.90
2017-10-07T09:50:14.532Z,6.40
2017-10-07T09:51:36.291Z,4.80
2017-10-07T09:52:36.960Z,5.40
2017-10-07T09:53:36.839Z,5.80
2017-10-07T09:55:22.143Z,6.60
2017-10-07T09:56:44.540Z,6.50
2017-10-07T09:57:44.446Z,6.90
2017-10-07T09:58:45.506Z,7.10
2017-10-07T10:01:39.031Z,5.50
2017-10-07T10:02:39.167Z,4.90
2017-10-07T10:03:39.228Z,5.80
2017-10-07T10:04:40.363Z,5.30
2017-10-07T10:05:39.415Z,5.90
2017-10-07T10:06:39.357Z,6.10
2017-10-07T10:07:39.247Z,5.60
2017-10-07T10:08:39.113Z,6.10
2017-10-07T10:09:39.460Z,5.70
2017-10-07T10:11:02.750Z,6.10
2017-10-07T10:12:24.402Z,5.80
2017-10-07T10:14:10.183Z,6.20
2017-10-07T10:15:56.520Z,5.30
2017-10-07T10:17:43.981Z,5.90
2017-10-07T10:19:07.246Z,5.10
2017-10-07T10:21:14.841Z,6.10
2017-10-07T10:22:17.033Z,6.30
2017-10-07T10:24:00.516Z,5.60
2017-10-07T10:25:23.244Z,5.80
2017-10-07T10:26:45.284Z,6.70
2017-10-07T10:27:46.827Z,5.60
2017-10-07T10:28:45.738Z,5.90
2017-10-07T10:29:46.201Z,6.70
2017-10-07T10:31:55.765Z,6.70
2017-10-07T10:33:19.700Z,6.10
2017-10-07T10:34:42.921Z,8.20
2017-10-07T10:35:43.232Z,8.00
2017-10-07T10:37:05.720Z,8.20
2017-10-07T10:38:30.565Z,8.10
2017-10-07T10:39:29.347Z,8.30
2017-10-07T10:40:29.896Z,8.90
2017-10-07T10:41:30.853Z,10.20
2017-10-07T10:42:30.463Z,9.60
2017-10-07T10:44:15.203Z,9.90
2017-10-07T10:45:15.025Z,10.10
2017-10-07T10:46:38.187Z,10.20
2017-10-07T10:47:47.381Z,10.10
2017-10-07T10:48:38.672Z,10.10
2017-10-07T10:49:59.784Z,11.30
2017-10-07T10:51:00.607Z,12.10
2017-10-07T10:52:00.476Z,11.60
2017-10-07T10:53:00.205Z,11.50
2017-10-07T10:54:23.198Z,12.70
2017-10-07T10:55:23.799Z,12.40
2017-10-07T10:57:31.500Z,11.80
2017-10-07T10:59:39.781Z,12.10
2017-10-07T11:01:02.652Z,13.50
2017-10-07T11:02:03.201Z,12.40
2017-10-07T11:04:33.778Z,13.70
2017-10-07T11:06:18.819Z,13.80
2017-10-07T11:07:42.210Z,16.00
2017-10-07T11:09:05.596Z,15.10
2017-10-07T11:10:05.638Z,14.60
2017-10-07T11:11:05.851Z,15.30
2017-10-07T11:12:05.956Z,14.60
2017-10-07T11:13:07.982Z,13.60
2017-10-07T11:14:06.304Z,16.10
2017-10-07T11:15:30.173Z,12.70
2017-10-07T11:16:52.565Z,14.30
2017-10-07T11:17:53.453Z,13.60
2017-10-07T11:18:53.981Z,13.80
2017-10-07T11:19:52.867Z,14.20
2017-10-07T11:20:53.128Z,13.10
2017-10-07T11:21:53.733Z,14.50
2017-10-07T11:22:53.084Z,15.60
2017-10-07T11:23:53.037Z,14.80
2017-10-07T11:24:53.198Z,16.10
2017-10-07T11:26:15.976Z,17.10
2017-10-07T11:28:03.063Z,15.50
2017-10-07T11:29:05.019Z,15.90
2017-10-07T11:30:26.654Z,13.90
2017-10-07T11:31:26.947Z,14.40
2017-10-07T11:33:12.782Z,15.70
2017-10-07T11:34:57.445Z,16.60
2017-10-07T11:35:58.534Z,16.30
2017-10-07T11:38:06.545Z,17.60
2017-10-07T11:40:17.654Z,17.20
2017-10-07T11:40:48.377Z,16.80
2017-10-07T11:41:30.730Z,16.50
2017-10-07T11:42:31.492Z,18.10
2017-10-07T11:43:53.609Z,19.10
2017-10-07T11:44:55.488Z,14.30
2017-10-07T11:45:54.410Z,15.40
2017-10-07T11:46:54.494Z,17.50
2017-10-07T11:47:54.857Z,16.60
2017-10-07T11:49:16.589Z,16.40
2017-10-07T11:50:39.847Z,15.30
2017-10-07T11:52:02.069Z,15.80
2017-10-07T11:53:03.040Z,15.80
2017-10-07T11:54:50.945Z,16.50
2017-10-07T11:56:14.072Z,14.00
2017-10-07T11:57:15.004Z,13.50
2017-10-07T11:58:14.778Z,15.00
2017-10-07T11:59:14.935Z,14.70
2017-10-07T12:00:15.656Z,13.70
2017-10-07T12:03:11.825Z,16.30
2017-10-07T12:04:12.699Z,15.20
2017-10-07T12:05:13.570Z,15.30
2017-10-07T12:06:12.378Z,14.70
2017-10-07T12:07:59.399Z,14.80
2017-10-07T12:09:45.698Z,15.50
2017-10-07T12:11:08.822Z,15.40
2017-10-07T12:13:42.777Z,16.30
2017-10-07T12:14:43.238Z,20.90
2017-10-07T12:15:42.012Z,18.30
2017-10-07T12:17:05.450Z,12.70
2017-10-07T12:18:28.691Z,14.10
2017-10-07T12:21:23.704Z,14.50
2017-10-07T12:22:24.127Z,14.50
2017-10-07T12:23:24.009Z,13.70
2017-10-07T12:25:08.388Z,11.60
2017-10-07T12:26:09.211Z,10.70
2017-10-07T12:27:31.250Z,11.90
2017-10-07T12:28:33.991Z,10.60
2017-10-07T12:29:32.323Z,10.80
2017-10-07T12:30:33.332Z,11.70
2017-10-07T12:31:30.871Z,10.70
2017-10-07T12:32:54.253Z,12.40
2017-10-07T12:33:55.115Z,12.80
2017-10-07T12:34:54.027Z,10.30
2017-10-07T12:35:57.138Z,11.50
2017-10-07T12:37:40.736Z,12.90
2017-10-07T12:39:48.088Z,11.80
2017-10-07T12:41:11.177Z,9.90
2017-10-07T12:43:18.919Z,12.20
2017-10-07T12:44:19.624Z,12.80
2017-10-07T12:46:49.895Z,10.80
2017-10-07T12:47:50.417Z,10.70
2017-10-07T12:48:50.219Z,10.70
2017-10-07T12:53:12.085Z,10.80
2017-10-07T12:54:12.567Z,11.90
2017-10-07T12:55:13.332Z,11.00
2017-10-07T12:56:12.097Z,10.60
2017-10-07T12:57:14.030Z,10.20
2017-10-07T12:58:35.084Z,11.40
2017-10-07T12:59:35.463Z,11.90
2017-10-07T13:00:57.969Z,12.80
2017-10-07T13:01:58.828Z,11.30
2017-10-07T13:03:21.136Z,11.70
2017-10-07T13:04:22.238Z,11.90
2017-10-07T13:05:44.526Z,11.20
2017-10-07T13:06:45.345Z,10.90
2017-10-07T13:07:45.587Z,10.60
2017-10-07T13:08:45.050Z,10.80
2017-10-07T13:10:51.724Z,10.80
2017-10-07T13:11:51.465Z,10.10
2017-10-07T13:13:15.330Z,12.20
2017-10-07T13:14:15.524Z,11.60
2017-10-07T13:15:15.263Z,10.20
2017-10-07T13:16:15.861Z,10.00
2017-10-07T13:17:15.393Z,11.80
2017-10-07T13:19:24.040Z,12.60
2017-10-07T13:20:22.915Z,12.70
2017-10-07T13:21:22.633Z,13.80
2017-10-07T13:22:22.583Z,14.60
2017-10-07T13:24:30.957Z,14.60
2017-10-07T13:26:17.060Z,14.20
2017-10-07T13:27:16.721Z,14.90
2017-10-07T13:28:16.207Z,14.30
2017-10-07T13:29:16.665Z,15.10
2017-10-07T13:30:17.111Z,14.10
2017-10-07T13:32:02.331Z,13.90
2017-10-07T13:33:02.716Z,14.20
2017-10-07T13:34:25.235Z,14.00
2017-10-07T13:36:35.023Z,14.90
2017-10-07T13:38:19.789Z,16.50
2017-10-07T13:40:28.703Z,16.40
2017-10-07T13:41:28.572Z,15.90
2017-10-07T13:42:51.275Z,16.40
2017-10-07T13:43:52.519Z,16.60
2017-10-07T13:48:16.228Z,15.60
2017-10-07T13:49:17.100Z,16.40
2017-10-07T13:52:32.488Z,17.10
2017-10-07T13:55:05.876Z,15.30
2017-10-07T13:56:06.548Z,16.40
2017-10-07T13:57:06.280Z,18.00
2017-10-07T13:58:06.610Z,17.60
2017-10-07T13:59:53.664Z,15.90
2017-10-07T14:00:55.392Z,37.20
2017-10-07T14:02:20.907Z,18.50
2017-10-07T14:03:22.885Z,19.20
2017-10-07T14:04:21.363Z,16.30
2017-10-07T14:05:28.552Z,16.20
2017-10-07T14:06:22.798Z,16.50
2017-10-07T14:07:45.558Z,15.80
2017-10-07T14:09:42.114Z,14.00
2017-10-07T14:11:29.605Z,15.80
2017-10-07T14:12:30.581Z,14.30
2017-10-07T14:14:16.707Z,13.10
2017-10-07T14:15:17.169Z,12.80
2017-10-07T14:16:17.701Z,12.30
2017-10-07T14:17:41.799Z,12.70
2017-10-07T14:18:42.707Z,13.80
2017-10-07T14:20:30.815Z,15.20
2017-10-07T14:21:31.635Z,13.70
2017-10-07T14:22:30.503Z,14.70
2017-10-07T14:23:55.465Z,15.80
2017-10-07T14:24:56.335Z,14.80
2017-10-07T14:26:44.755Z,15.60
2017-10-07T14:28:07.828Z,14.20
2017-10-07T14:29:08.521Z,14.70
2017-10-07T14:30:08.089Z,15.40
2017-10-07T14:31:55.210Z,16.30
2017-10-07T14:32:55.032Z,16.60
2017-10-07T14:33:55.801Z,14.80
2017-10-07T14:34:55.818Z,14.70
2017-10-07T14:35:55.556Z,12.00
2017-10-07T14:38:25.705Z,12.90
2017-10-07T14:39:26.688Z,14.10
2017-10-07T14:41:57.151Z,12.90
2017-10-07T14:42:57.759Z,14.70
2017-10-07T14:43:57.616Z,16.00
2017-10-07T14:44:57.966Z,15.20
2017-10-07T14:47:05.612Z,13.50
2017-10-07T14:48:05.360Z,13.70
2017-10-07T14:49:06.033Z,15.00
2017-10-07T14:51:15.353Z,14.10
2017-10-07T14:52:16.403Z,12.70
2017-10-07T14:54:01.717Z,15.20
2017-10-07T14:56:33.120Z,15.30
2017-10-07T14:57:34.208Z,14.50
2017-10-07T14:59:17.527Z,14.50
2017-10-07T15:00:18.118Z,15.80
2017-10-07T15:02:03.269Z,15.50
2017-10-07T15:03:25.678Z,15.20
2017-10-07T15:05:09.885Z,15.90
2017-10-07T15:06:33.171Z,17.90
2017-10-07T15:09:06.729Z,15.10
2017-10-07T15:10:09.357Z,14.90
2017-10-07T15:12:17.314Z,16.70
2017-10-07T15:13:22.322Z,17.10
2017-10-07T15:14:40.753Z,14.80
2017-10-07T15:15:41.603Z,14.50
2017-10-07T15:21:36.192Z,16.30
2017-10-07T15:22:36.275Z,15.00
2017-10-07T15:23:37.390Z,14.20
2017-10-07T15:24:58.610Z,15.40
2017-10-07T15:26:00.197Z,15.50
2017-10-07T15:26:59.122Z,16.60
2017-10-07T15:28:44.330Z,15.10
2017-10-07T15:29:45.584Z,14.40
2017-10-07T15:31:07.597Z,14.00
2017-10-07T15:32:08.359Z,14.80
2017-10-07T15:33:08.049Z,13.60
2017-10-07T15:35:15.734Z,14.40
2017-10-07T15:36:15.789Z,14.90
2017-10-07T15:37:17.770Z,15.90
2017-10-07T15:38:38.802Z,16.20
2017-10-07T15:39:39.247Z,15.00
2017-10-07T15:40:39.047Z,14.00
2017-10-07T15:42:01.787Z,15.60
2017-10-07T15:44:10.199Z,16.80
2017-10-07T15:46:20.011Z,16.20
2017-10-07T15:48:48.931Z,16.00
2017-10-07T15:49:49.710Z,17.10
2017-10-07T15:50:49.460Z,16.90
2017-10-07T15:52:15.126Z,0.00
2017-10-07T15:53:37.287Z,16.60
2017-10-07T15:55:23.323Z,16.90
2017-10-07T15:56:23.260Z,17.50
2017-10-07T16:00:46.777Z,17.20
2017-10-07T16:01:47.802Z,17.00
2017-10-07T16:02:47.796Z,18.10
2017-10-07T16:03:47.608Z,14.50
2017-10-07T16:04:47.237Z,16.80
2017-10-07T16:05:47.081Z,17.70
2017-10-07T16:07:09.380Z,18.80
2017-10-07T16:08:10.616Z,19.10
2017-10-07T16:09:10.418Z,17.00
2017-10-07T16:10:10.809Z,18.90
2017-10-07T16:11:09.520Z,16.40
2017-10-07T16:13:16.905Z,17.00
2017-10-07T16:14:16.767Z,15.00
2017-10-07T16:15:16.877Z,16.30
2017-10-07T16:16:16.609Z,17.50
2017-10-07T16:17:17.604Z,17.20
2017-10-07T16:18:17.372Z,16.50
2017-10-07T16:19:16.928Z,17.80
2017-10-07T16:20:16.864Z,16.10
2017-10-07T16:21:39.656Z,15.10
2017-10-07T16:22:39.231Z,14.50
2017-10-07T16:24:46.634Z,17.40
2017-10-07T16:25:47.455Z,16.90
2017-10-07T16:27:54.512Z,15.50
2017-10-07T16:29:39.995Z,16.90
2017-10-07T16:30:40.799Z,14.40
2017-10-07T16:31:41.324Z,15.20
2017-10-07T16:32:40.042Z,15.90
2017-10-07T16:34:25.752Z,16.80
2017-10-07T16:35:48.674Z,14.60
2017-10-07T16:36:49.491Z,14.30
2017-10-07T16:38:11.458Z,14.80
2017-10-07T16:39:57.186Z,16.00
2017-10-07T16:40:57.844Z,15.10
2017-10-07T16:41:57.518Z,16.80
2017-10-07T16:43:20.520Z,18.50
2017-10-07T16:44:21.170Z,17.00
2017-10-07T16:45:43.434Z,15.40
2017-10-07T16:46:44.239Z,14.50
2017-10-07T16:48:07.244Z,16.20
2017-10-07T16:49:31.194Z,15.90
2017-10-07T16:51:16.699Z,15.70
2017-10-07T16:53:02.724Z,15.40
2017-10-07T16:54:04.148Z,15.90
2017-10-07T16:55:04.433Z,16.10
2017-10-07T16:56:04.110Z,14.20
2017-10-07T16:57:04.550Z,13.70
2017-10-07T16:58:48.666Z,13.90
2017-10-07T17:00:58.018Z,13.70
2017-10-07T17:01:58.847Z,14.60
2017-10-07T17:02:58.585Z,13.10
2017-10-07T17:03:59.368Z,12.40
2017-10-07T17:05:21.724Z,13.20
2017-10-07T17:07:28.000Z,13.50
2017-10-07T17:08:28.631Z,14.90
2017-10-07T17:10:36.393Z,18.10
2017-10-07T17:11:36.816Z,15.30